Time;durP1;ratioP1;P1;durP2;ratioP2;P2;SDS_P1;SDS_P2;PMS_P1;PMS_P2;Temp;Humidity;BMP_temperature;BMP_pressure;BME280_temperature;BME280_humidity;BME280_pressure;Samples;Min_cycle;Max_cycle;Signal;HPM_P1;HPM_P2
2023/10/09 00:03:12;;;;;;;;;;;;;;;;;;10486425;28;19920;-72
2023/10/09 00:08:19;;;;;;;;;;;;;;;;;;10487796;28;20030;-72
2023/10/09 00:13:27;;;;;;;;;;;;;;;;;;10477164;28;19924;-71
2023/10/09 00:18:33;;;;;;;;;;;;;;;;;;10483137;28;19991;-72
2023/10/09 00:23:36;;;;;;;;;;;;;;;;;;10483386;28;19924;-72
2023/10/09 00:28:41;;;;;;;;;;;;;;;;;;10479701;28;20021;-72
2023/10/09 00:33:44;;;;;;;;;;;;;;;;;;10482381;28;19935;-72
2023/10/09 00:38:49;;;;;;;;;;;;;;;;;;10483576;28;20443;-72
2023/10/09 00:43:52;;;;;;;;;;;;;;;;;;10444294;28;1057473;-73
2023/10/09 00:48:55;;;;;;;;;;;;;;;;;;10486768;28;20020;-71
2023/10/09 00:53:59;;;;;;;;;;;;;;;;;;10485286;28;20305;-72
2023/10/09 00:59:08;;;;;;;;;;;;;;;;;;10462541;28;19929;-73
2023/10/09 01:04:11;;;;;;;;;;;;;;;;;;10482716;28;19970;-73
2023/10/09 01:09:15;;;;;;;;;;;;;;;;;;10482874;28;19924;-72
2023/10/09 01:14:22;;;;;;;;;;;;;;;;;;10480278;28;20014;-72
2023/10/09 01:19:25;;;;;;;;;;;;;;;;;;10484732;28;20421;-72
2023/10/09 01:24:28;;;;;;;;;;;;;;;;;;10480240;28;19920;-73
2023/10/09 01:29:30;;;;;;;;;;;;;;;;;;10484803;28;19920;-72
2023/10/09 01:34:41;;;;;;;;;;;;;;;;;;10484797;28;19924;-71
2023/10/09 01:39:45;;;;;;;;;;;;;;;;;;10483479;28;19924;-72
2023/10/09 01:44:48;;;;;;;;;;;;;;;;;;10482723;28;20435;-75
2023/10/09 01:49:52;;;;;;;;;;;;;;;;;;10484604;28;19946;-72
2023/10/09 01:55:02;;;;;;;;;;;;;;;;;;10478958;28;19924;-72
2023/10/09 02:00:05;;;;;;;;;;;;;;;;;;10481060;28;19924;-72
2023/10/09 02:05:10;;;;;;;;;;;;;;;;;;10481584;28;19963;-71
2023/10/09 02:10:25;;;;;;;;;;;;;;;;;;10484449;28;20037;-72
2023/10/09 02:15:51;;;;;;;;;;;;;;;;;;10480684;28;19928;-71
2023/10/09 02:21:00;;;;;;;;;;;;;;;;;;10480441;28;19943;-72
2023/10/09 02:26:05;;;;;;;;;;;;;;;;;;10484910;28;20381;-71
2023/10/09 02:31:21;;;;;;;;;;;;;;;;;;10478171;28;19924;-71
2023/10/09 02:36:28;;;;;;;;;;;;;;;;;;10485934;28;19928;-72
2023/10/09 02:41:34;;;;;;;;;;;;;;;;;;10479960;28;20002;-71
2023/10/09 02:46:36;;;;;;;;;;;;;;;;;;10477750;28;19955;-72
2023/10/09 02:51:42;;;;;;;;;;;;;;;;;;10477736;28;19920;-71
2023/10/09 02:56:47;;;;;;;;;;;;;;;;;;10481650;28;20360;-71
2023/10/09 03:01:50;;;;;;;;;;;;;;;;;;10479929;28;19924;-72
2023/10/09 03:06:57;;;;;;;;;;;;;;;;;;10478035;28;19963;-71
2023/10/09 03:12:02;;;;;;;;;;;;;;;;;;10475542;28;19920;-71
2023/10/09 03:17:06;;;;;;;;;;;;;;;;;;10485058;28;19920;-71
2023/10/09 03:22:10;;;;;;;;;;;;;;;;;;10479730;28;19935;-71
2023/10/09 03:27:14;;;;;;;;;;;;;;;;;;10480014;28;19935;-71
2023/10/09 03:32:16;;;;;;;;;;;;;;;;;;10458734;28;19974;-71
2023/10/09 03:37:33;;;;;;;;;;;;;;;;;;10475378;28;19921;-71
2023/10/09 03:42:36;;;;;;;;;;;;;;;;;;10474644;28;20154;-74
2023/10/09 03:47:41;;;;;;;;;;;;;;;;;;10479992;28;20304;-72
2023/10/09 03:52:43;;;;;;;;;;;;;;;;;;10477338;28;19920;-71
2023/10/09 03:57:46;;;;;;;;;;;;;;;;;;10478532;28;19931;-74
2023/10/09 04:02:49;;;;;;;;;;;;;;;;;;10483290;28;19976;-72
2023/10/09 04:07:54;;;;;;;;;;;;;;;;;;10485921;28;19967;-72
2023/10/09 04:12:58;;;;;;;;;;;;;;;;;;10479692;28;20312;-71
2023/10/09 04:18:01;;;;;;;;;;;;;;;;;;10478580;28;19932;-72
2023/10/09 04:23:05;;;;;;;;;;;;;;;;;;10473553;28;19932;-72
2023/10/09 04:28:09;;;;;;;;;;;;;;;;;;10480538;28;20415;-71
2023/10/09 04:33:28;;;;;;;;;;;;;;;;;;10481982;28;19959;-70
2023/10/09 04:38:34;;;;;;;;;;;;;;;;;;10480180;28;19928;-71
2023/10/09 04:43:43;;;;;;;;;;;;;;;;;;10484452;28;20039;-71
2023/10/09 04:48:46;;;;;;;;;;;;;;;;;;10489821;28;19927;-72
2023/10/09 04:53:54;;;;;;;;;;;;;;;;;;10489303;28;20003;-73
2023/10/09 04:59:03;;;;;;;;;;;;;;;;;;10484852;28;19974;-71
2023/10/09 05:04:26;;;;;;;;;;;;;;;;;;10485090;28;19920;-72
2023/10/09 05:09:55;;;;;;;;;;;;;;;;;;10485444;28;20385;-72
2023/10/09 05:15:08;;;;;;;;;;;;;;;;;;10483886;28;20339;-71
2023/10/09 05:31:06;;;;;;;;;;;;;;;;;;10467030;28;20015;-70
2023/10/09 05:47:22;;;;;;;;;;;;;;;;;;10486255;28;19924;-72
2023/10/09 06:08:10;;;;;;;;;;;;;;;;;;10484350;28;20331;-74
2023/10/09 06:19:07;;;;;;;;;;;;;;;;;;10524780;27;20001;-71
2023/10/09 06:24:14;;;;;;;;;;;;;;;;;;10510987;28;19985;-71
2023/10/09 06:29:33;;;;;;;;;;;;;;;;;;10503418;28;20007;-70
2023/10/09 06:34:39;;;;;;;;;;;;;;;;;;10496019;28;19955;-71
2023/10/09 06:40:22;;;;;;;;;;;;;;;;;;10497273;28;20059;-71
2023/10/09 06:45:16;;;;;;;;;;;;;;;;;;10492941;28;20401;-71
2023/10/09 06:50:25;;;;;;;;;;;;;;;;;;10504867;28;20479;-72
2023/10/09 06:55:35;;;;;;;;;;;;;;;;;;10506868;28;20013;-70
2023/10/09 07:06:05;;;;;;;;;;;;;;;;;;10504467;28;19932;-71
2023/10/09 07:11:57;;;;;;;;;;;;;;;;;;10500415;28;19982;-71
2023/10/09 07:16:57;;;;;;;;;;;;;;;;;;10527502;28;19924;-73
2023/10/09 07:22:03;;;;;;;;;;;;;;;;;;10545317;28;20424;-72
2023/10/09 07:27:13;;;;;;;;;;;;;;;;;;10525755;28;19925;-71
2023/10/09 07:32:20;;;;;;;;;;;;;;;;;;10514922;28;19990;-71
2023/10/09 07:37:23;;;;;;;;;;;;;;;;;;10515856;28;19997;-71
2023/10/09 07:42:41;;;;;;;;;;;;;;;;;;10514844;28;19959;-72
2023/10/09 07:48:02;;;;;;;;;;;;;;;;;;10515441;28;20014;-72
2023/10/09 07:53:17;;;;;;;;;;;;;;;;;;10505188;28;19932;-71
2023/10/09 07:58:24;;;;;;;;;;;;;;;;;;10509878;28;20069;-69
2023/10/09 08:03:32;;;;;;;;;;;;;;;;;;10510744;28;19928;-70
2023/10/09 08:09:16;;;;;;;;;;;;;;;;;;10509385;28;19924;-72
2023/10/09 08:14:07;;;;;;;;;;;;;;;;;;10504845;28;20042;-70
2023/10/09 08:19:32;;;;;;;;;;;;;;;;;;10505974;28;19939;-70
2023/10/09 08:24:41;;;;;;;;;;;;;;;;;;10516915;28;20011;-70
2023/10/09 08:29:47;;;;;;;;;;;;;;;;;;10505985;28;19932;-71
2023/10/09 08:34:53;;;;;;;;;;;;;;;;;;10515452;28;19963;-70
2023/10/09 08:39:58;;;;;;;;;;;;;;;;;;10511524;28;20409;-70
2023/10/09 08:45:03;;;;;;;;;;;;;;;;;;10510690;28;19959;-72
2023/10/09 08:50:13;;;;;;;;;;;;;;;;;;10508732;28;19945;-72
2023/10/09 08:55:16;;;;;;;;;;;;;;;;;;10509426;28;19933;-71
2023/10/09 09:00:23;;;;;;;;;;;;;;;;;;10503896;28;19932;-71
2023/10/09 09:05:28;;;;;;;;;;;;;;;;;;10509084;28;19929;-71
2023/10/09 09:10:35;;;;;;;;;;;;;;;;;;10509288;28;19935;-71
2023/10/09 09:15:39;;;;;;;;;;;;;;;;;;10514700;28;20396;-71
2023/10/09 09:20:46;;;;;;;;;;;;;;;;;;10521284;28;20035;-72
2023/10/09 09:25:58;;;;;;;;;;;;;;;;;;10503017;28;20286;-74
2023/10/09 09:31:02;;;;;;;;;;;;;;;;;;10491591;28;19935;-71
2023/10/09 09:36:05;;;;;;;;;;;;;;;;;;10508194;28;20437;-71
2023/10/09 09:41:08;;;;;;;;;;;;;;;;;;10500003;28;20408;-73
2023/10/09 09:46:11;;;;;;;;;;;;;;;;;;10506468;28;20177;-72
2023/10/09 09:51:15;;;;;;;;;;;;;;;;;;10506862;28;19930;-72
2023/10/09 09:56:21;;;;;;;;;;;;;;;;;;10513569;28;20097;-73
2023/10/09 10:01:24;;;;;;;;;;;;;;;;;;10507270;28;19950;-71
2023/10/09 10:06:28;;;;;;;;;;;;;;;;;;10501009;28;20031;-71
2023/10/09 10:11:30;;;;;;;;;;;;;;;;;;10508410;28;20020;-72
2023/10/09 10:16:35;;;;;;;;;;;;;;;;;;10506975;28;19968;-72
2023/10/09 10:21:41;;;;;;;;;;;;;;;;;;10507987;28;20393;-72
2023/10/09 10:26:44;;;;;;;;;;;;;;;;;;10497988;28;20010;-70
2023/10/09 10:31:47;;;;;;;;;;;;;;;;;;10508328;28;19936;-72
2023/10/09 10:36:52;;;;;;;;;;;;;;;;;;10505512;28;20032;-71
2023/10/09 10:41:55;;;;;;;;;;;;;;;;;;10510375;28;19964;-74
2023/10/09 10:46:57;;;;;;;;;;;;;;;;;;10505543;28;20043;-71
2023/10/09 10:52:15;;;;;;;;;;;;;;;;;;10507359;28;19924;-70
2023/10/09 11:02:37;;;;;;;;;;;;;;;;;;10510796;28;19932;-71
2023/10/09 11:07:40;;;;;;;;;;;;;;;;;;10508524;28;19925;-70
2023/10/09 11:12:45;;;;;;;;;;;;;;;;;;10511243;28;19931;-70
2023/10/09 11:17:51;;;;;;;;;;;;;;;;;;10516610;28;19928;-71
2023/10/09 11:23:14;;;;;;;;;;;;;;;;;;10511069;28;20336;-71
2023/10/09 11:28:27;;;;;;;;;;;;;;;;;;10511008;28;20380;-71
2023/10/09 11:33:30;;;;;;;;;;;;;;;;;;10506773;28;19928;-71
2023/10/09 11:38:34;;;;;;;;;;;;;;;;;;10516830;28;20367;-72
2023/10/09 11:43:51;;;;;;;;;;;;;;;;;;10508531;28;19929;-71
2023/10/09 11:49:15;;;;;;;;;;;;;;;;;;10506204;28;19960;-71
2023/10/09 11:54:17;;;;;;;;;;;;;;;;;;10509689;28;19936;-72
2023/10/09 11:59:19;;;;;;;;;;;;;;;;;;10505059;28;19928;-70
2023/10/09 12:04:29;;;;;;;;;;;;;;;;;;10519085;28;20015;-71
2023/10/09 12:09:34;;;;;;;;;;;;;;;;;;10517654;28;20480;-70
2023/10/09 12:14:37;;;;;;;;;;;;;;;;;;10510186;28;19985;-71
2023/10/09 12:19:40;;;;;;;;;;;;;;;;;;10511264;28;19924;-72
2023/10/09 12:24:43;;;;;;;;;;;;;;;;;;10512062;28;19932;-72
2023/10/09 12:29:46;;;;;;;;;;;;;;;;;;10516274;28;19932;-71
2023/10/09 12:34:51;;;;;;;;;;;;;;;;;;10501806;28;19974;-71
2023/10/09 12:39:56;;;;;;;;;;;;;;;;;;10513719;28;19924;-72
2023/10/09 12:45:00;;;;;;;;;;;;;;;;;;10491318;28;19932;-75
2023/10/09 12:50:02;;;;;;;;;;;;;;;;;;10509007;28;19932;-72
2023/10/09 12:55:09;;;;;;;;;;;;;;;;;;10508029;28;19928;-74
2023/10/09 13:00:12;;;;;;;;;;;;;;;;;;10515689;28;19932;-73
2023/10/09 13:05:25;;;;;;;;;;;;;;;;;;10513911;28;19970;-75
2023/10/09 13:10:31;;;;;;;;;;;;;;;;;;10512333;28;19952;-72
2023/10/09 13:15:42;;;;;;;;;;;;;;;;;;10509216;28;20400;-75
2023/10/09 13:20:45;;;;;;;;;;;;;;;;;;10519852;28;20003;-74
2023/10/09 13:25:48;;;;;;;;;;;;;;;;;;10509713;28;19960;-74
2023/10/09 13:30:50;;;;;;;;;;;;;;;;;;10504432;28;20424;-72
2023/10/09 13:35:55;;;;;;;;;;;;;;;;;;10517766;28;19931;-73
2023/10/09 13:41:01;;;;;;;;;;;;;;;;;;10517188;28;20343;-73
2023/10/09 13:46:03;;;;;;;;;;;;;;;;;;10523623;28;19924;-73
2023/10/09 13:51:08;;;;;;;;;;;;;;;;;;10513572;28;19928;-72
2023/10/09 13:56:14;;;;;;;;;;;;;;;;;;10516731;28;19981;-72
2023/10/09 14:01:32;;;;;;;;;;;;;;;;;;10519042;28;19924;-72
2023/10/09 14:06:37;;;;;;;;;;;;;;;;;;10518920;28;20018;-72
2023/10/09 14:11:44;;;;;;;;;;;;;;;;;;10516345;28;19932;-71
2023/10/09 14:16:46;;;;;;;;;;;;;;;;;;10516794;28;19930;-72
2023/10/09 14:21:49;;;;;;;;;;;;;;;;;;10521264;28;20517;-72
2023/10/09 14:26:52;;;;;;;;;;;;;;;;;;10517807;28;19978;-73
2023/10/09 14:32:00;;;;;;;;;;;;;;;;;;10515191;28;19925;-72
2023/10/09 14:37:03;;;;;;;;;;;;;;;;;;10516088;28;19931;-71
2023/10/09 14:42:09;;;;;;;;;;;;;;;;;;10522886;28;19969;-72
2023/10/09 14:47:14;;;;;;;;;;;;;;;;;;10523367;28;20038;-71
2023/10/09 14:52:18;;;;;;;;;;;;;;;;;;10520555;28;20016;-72
2023/10/09 14:57:21;;;;;;;;;;;;;;;;;;10518976;28;19928;-72
2023/10/09 15:02:24;;;;;;;;;;;;;;;;;;10520424;28;19932;-72
2023/10/09 15:07:28;;;;;;;;;;;;;;;;;;10519172;28;19925;-74
2023/10/09 15:12:42;;;;;;;;;;;;;;;;;;10516502;28;19939;-73
2023/10/09 15:17:47;;;;;;;;;;;;;;;;;;10524512;28;19932;-72
2023/10/09 15:22:51;;;;;;;;;;;;;;;;;;10501259;28;20005;-72
2023/10/09 15:27:54;;;;;;;;;;;;;;;;;;10520729;28;19924;-71
2023/10/09 15:32:57;;;;;;;;;;;;;;;;;;10517706;28;19944;-72
2023/10/09 15:38:03;;;;;;;;;;;;;;;;;;10508810;28;19932;-71
2023/10/09 15:43:05;;;;;;;;;;;;;;;;;;10515480;28;19932;-71
2023/10/09 15:48:08;;;;;;;;;;;;;;;;;;10512558;28;20038;-73
2023/10/09 15:53:11;;;;;;;;;;;;;;;;;;10506236;28;20254;-73
2023/10/09 15:58:17;;;;;;;;;;;;;;;;;;10516167;28;19924;-73
2023/10/09 16:03:20;;;;;;;;;;;;;;;;;;10518728;28;19928;-72
2023/10/09 16:08:28;;;;;;;;;;;;;;;;;;10509497;28;20027;-73
2023/10/09 16:13:32;;;;;;;;;;;;;;;;;;10503551;28;19936;-74
2023/10/09 16:18:35;;;;;;;;;;;;;;;;;;10512640;28;20296;-72
2023/10/09 16:23:37;;;;;;;;;;;;;;;;;;10513560;28;19928;-73
2023/10/09 16:28:40;;;;;;;;;;;;;;;;;;10510633;28;20091;-75
2023/10/09 16:33:43;;;;;;;;;;;;;;;;;;10507409;28;20110;-75
2023/10/09 16:38:46;;;;;;;;;;;;;;;;;;10502859;28;19924;-73
2023/10/09 16:43:49;;;;;;;;;;;;;;;;;;10508090;28;19985;-74
2023/10/09 16:48:55;;;;;;;;;;;;;;;;;;10508598;28;20397;-75
2023/10/09 16:53:58;;;;;;;;;;;;;;;;;;10512311;28;20312;-76
2023/10/09 16:59:03;;;;;;;;;;;;;;;;;;10501586;28;19924;-72
2023/10/09 17:04:11;;;;;;;;;;;;;;;;;;10509214;28;19930;-73
2023/10/09 17:09:14;;;;;;;;;;;;;;;;;;10511832;28;20015;-74
2023/10/09 17:14:19;;;;;;;;;;;;;;;;;;10504592;28;20413;-73
2023/10/09 17:19:23;;;;;;;;;;;;;;;;;;10516081;28;19983;-72
2023/10/09 17:24:25;;;;;;;;;;;;;;;;;;10505792;28;19936;-72
2023/10/09 17:29:28;;;;;;;;;;;;;;;;;;10514206;28;19925;-73
2023/10/09 17:34:31;;;;;;;;;;;;;;;;;;10504498;28;20014;-72
2023/10/09 17:39:34;;;;;;;;;;;;;;;;;;10509221;28;20015;-72
2023/10/09 17:44:38;;;;;;;;;;;;;;;;;;10504422;28;20037;-72
2023/10/09 17:49:41;;;;;;;;;;;;;;;;;;10509499;28;19928;-72
2023/10/09 17:54:44;;;;;;;;;;;;;;;;;;10508473;28;19970;-73
2023/10/09 17:59:47;;;;;;;;;;;;;;;;;;10510096;28;19954;-74
2023/10/09 18:04:50;;;;;;;;;;;;;;;;;;10506465;28;21206;-73
2023/10/09 18:09:53;;;;;;;;;;;;;;;;;;10502405;28;19924;-71
2023/10/09 18:14:59;;;;;;;;;;;;;;;;;;10510924;28;20007;-72
2023/10/09 18:20:05;;;;;;;;;;;;;;;;;;10499811;28;20030;-73
2023/10/09 18:25:09;;;;;;;;;;;;;;;;;;10503601;28;20503;-72
2023/10/09 18:30:12;;;;;;;;;;;;;;;;;;10509341;28;19931;-72
2023/10/09 18:35:15;;;;;;;;;;;;;;;;;;10510726;28;19959;-72
2023/10/09 18:40:20;;;;;;;;;;;;;;;;;;10503709;28;19931;-71
2023/10/09 18:45:23;;;;;;;;;;;;;;;;;;10509225;28;20073;-72
2023/10/09 18:50:26;;;;;;;;;;;;;;;;;;10502278;28;19943;-71
2023/10/09 18:55:28;;;;;;;;;;;;;;;;;;10504037;28;19924;-72
2023/10/09 19:00:31;;;;;;;;;;;;;;;;;;10509926;28;20170;-72
2023/10/09 19:05:35;;;;;;;;;;;;;;;;;;10505767;28;20030;-71
2023/10/09 19:10:38;;;;;;;;;;;;;;;;;;10507472;28;19936;-71
2023/10/09 19:15:41;;;;;;;;;;;;;;;;;;10500911;28;19986;-71
2023/10/09 19:20:43;;;;;;;;;;;;;;;;;;10510315;28;19989;-72
2023/10/09 19:25:46;;;;;;;;;;;;;;;;;;10514780;28;19977;-70
2023/10/09 19:30:49;;;;;;;;;;;;;;;;;;10514880;28;20297;-72
2023/10/09 19:35:52;;;;;;;;;;;;;;;;;;10496647;28;19932;-72
2023/10/09 19:40:55;;;;;;;;;;;;;;;;;;10512415;28;19924;-72
2023/10/09 19:45:58;;;;;;;;;;;;;;;;;;10521979;28;20015;-72
2023/10/09 19:51:01;;;;;;;;;;;;;;;;;;10516255;28;19935;-73
2023/10/09 19:56:03;;;;;;;;;;;;;;;;;;10514776;28;19928;-72
2023/10/09 20:01:06;;;;;;;;;;;;;;;;;;10514256;28;19924;-71
2023/10/09 20:06:09;;;;;;;;;;;;;;;;;;10508780;28;19984;-72
2023/10/09 20:11:12;;;;;;;;;;;;;;;;;;10514951;28;20065;-73
2023/10/09 20:16:15;;;;;;;;;;;;;;;;;;10514173;28;19924;-72
2023/10/09 20:21:18;;;;;;;;;;;;;;;;;;10516639;28;19936;-72
2023/10/09 20:26:22;;;;;;;;;;;;;;;;;;10510976;28;20006;-73
2023/10/09 20:31:26;;;;;;;;;;;;;;;;;;10517076;28;20008;-71
2023/10/09 20:36:30;;;;;;;;;;;;;;;;;;10503632;28;19929;-72
2023/10/09 20:41:33;;;;;;;;;;;;;;;;;;10504293;28;19932;-71
2023/10/09 20:46:36;;;;;;;;;;;;;;;;;;10506233;28;20023;-72
2023/10/09 20:51:39;;;;;;;;;;;;;;;;;;10510472;28;19925;-72
2023/10/09 20:56:56;;;;;;;;;;;;;;;;;;10509559;28;19924;-73
2023/10/09 21:01:58;;;;;;;;;;;;;;;;;;10505487;28;19924;-72
2023/10/09 21:07:02;;;;;;;;;;;;;;;;;;10509108;28;19932;-71
2023/10/09 21:12:05;;;;;;;;;;;;;;;;;;10508403;28;19995;-72
2023/10/09 21:17:07;;;;;;;;;;;;;;;;;;10512071;28;19928;-71
2023/10/09 21:22:10;;;;;;;;;;;;;;;;;;10512409;28;20425;-73
2023/10/09 21:27:12;;;;;;;;;;;;;;;;;;10515461;28;19977;-72
2023/10/09 21:32:15;;;;;;;;;;;;;;;;;;10516756;28;20011;-71
2023/10/09 21:37:19;;;;;;;;;;;;;;;;;;10521198;28;19924;-72
2023/10/09 21:42:21;;;;;;;;;;;;;;;;;;10513687;28;20410;-71
2023/10/09 21:47:24;;;;;;;;;;;;;;;;;;10506891;28;20001;-72
2023/10/09 21:52:27;;;;;;;;;;;;;;;;;;10522136;28;19924;-74
2023/10/09 21:57:29;;;;;;;;;;;;;;;;;;10511466;28;20009;-73
2023/10/09 22:02:32;;;;;;;;;;;;;;;;;;10512193;28;19956;-71
2023/10/09 22:07:34;;;;;;;;;;;;;;;;;;10507530;28;19928;-70
2023/10/09 22:12:39;;;;;;;;;;;;;;;;;;10509644;28;20023;-73
2023/10/09 22:17:43;;;;;;;;;;;;;;;;;;10516547;28;20101;-72
2023/10/09 22:22:46;;;;;;;;;;;;;;;;;;10506463;28;19950;-71
2023/10/09 22:27:51;;;;;;;;;;;;;;;;;;10516381;28;19935;-72
2023/10/09 22:32:55;;;;;;;;;;;;;;;;;;10514925;28;19928;-70
2023/10/09 22:37:58;;;;;;;;;;;;;;;;;;10512525;28;19924;-71
2023/10/09 22:43:01;;;;;;;;;;;;;;;;;;10505249;28;20296;-70
2023/10/09 22:48:04;;;;;;;;;;;;;;;;;;10501731;28;20424;-71
2023/10/09 22:53:16;;;;;;;;;;;;;;;;;;10504360;28;19929;-74
2023/10/09 22:58:25;;;;;;;;;;;;;;;;;;10516849;28;20068;-72
2023/10/09 23:03:27;;;;;;;;;;;;;;;;;;10515803;28;19924;-71
2023/10/09 23:08:30;;;;;;;;;;;;;;;;;;10520256;28;20026;-71
2023/10/09 23:13:35;;;;;;;;;;;;;;;;;;10513539;28;20019;-71
2023/10/09 23:19:06;;;;;;;;;;;;;;;;;;10522677;28;20023;-71
2023/10/09 23:24:09;;;;;;;;;;;;;;;;;;10518202;28;20389;-71
2023/10/09 23:29:12;;;;;;;;;;;;;;;;;;10517462;28;19928;-73
2023/10/09 23:34:20;;;;;;;;;;;;;;;;;;10513162;28;19928;-70
2023/10/09 23:44:50;;;;;;;;;;;;;;;;;;10516239;27;20031;-70
2023/10/09 23:49:53;;;;;;;;;;;;;;;;;;10512618;28;20066;-70
2023/10/09 23:55:00;;;;;;;;;;;;;;;;;;10510373;28;20012;-71
